Time;durP1;ratioP1;P1;durP2;ratioP2;P2;SDS_P1;SDS_P2;PMS_P1;PMS_P2;Temp;Humidity;BMP_temperature;BMP_pressure;BME280_temperature;BME280_humidity;BME280_pressure;Samples;Min_cycle;Max_cycle;Signal;HPM_P1;HPM_P2
2021/12/24 00:00:13;;;;;;;;;;;5.80;99.90;;;;;;4957866;28;19926;-81
2021/12/24 00:02:39;;;;;;;;;;;5.80;99.90;;;;;;4972869;28;19965;-82
2021/12/24 00:05:06;;;;;;;;;;;5.80;99.90;;;;;;4974119;28;20449;-81
2021/12/24 00:07:31;;;;;;;;;;;5.90;99.90;;;;;;4973814;28;19922;-82
2021/12/24 00:09:57;;;;;;;;;;;6.00;99.90;;;;;;4957620;28;20429;-80
2021/12/24 00:12:25;;;;;;;;;;;6.00;99.90;;;;;;4973166;28;20302;-81
2021/12/24 00:14:54;;;;;;;;;;;6.00;99.90;;;;;;4956914;28;20383;-81
2021/12/24 00:17:26;;;;;;;;;;;6.00;99.90;;;;;;4957602;28;20306;-81
2021/12/24 00:21:14;;;;;;;;;;;6.00;99.90;;;;;;4973545;28;19932;-81
2021/12/24 00:36:21;;;;;;;;;;;6.10;99.90;;;;;;4973235;28;19929;-81
2021/12/24 00:38:48;;;;;;;;;;;6.20;99.90;;;;;;4956917;28;19926;-81
2021/12/24 00:41:14;;;;;;;;;;;6.20;99.90;;;;;;4970527;28;19922;-80
2021/12/24 00:43:39;;;;;;;;;;;6.20;99.90;;;;;;4955860;28;20350;-81
2021/12/24 00:46:05;;;;;;;;;;;6.20;99.90;;;;;;4956569;28;19922;-81
2021/12/24 00:48:30;;;;;;;;;;;6.30;99.90;;;;;;4956975;28;19929;-82
2021/12/24 00:56:08;;;;;;;;;;;6.30;99.90;;;;;;4973267;28;20350;-81
2021/12/24 00:58:33;;;;;;;;;;;6.40;99.90;;;;;;4956440;28;19926;-80
2021/12/24 01:00:59;;;;;;;;;;;6.30;99.90;;;;;;4972669;28;20349;-80
2021/12/24 01:03:24;;;;;;;;;;;6.40;99.90;;;;;;4956222;28;19922;-79
2021/12/24 01:05:50;;;;;;;;;;;6.40;99.90;;;;;;4972412;28;20049;-80
2021/12/24 01:08:16;;;;;;;;;;;6.50;99.90;;;;;;4972864;28;20279;-80
2021/12/24 01:10:44;;;;;;;;;;;6.50;99.90;;;;;;4972733;28;19961;-80
2021/12/24 01:13:10;;;;;;;;;;;6.50;99.90;;;;;;4972010;28;20030;-80
2021/12/24 01:15:40;;;;;;;;;;;6.50;99.90;;;;;;4972455;28;20004;-80
2021/12/24 01:18:21;;;;;;;;;;;6.50;99.90;;;;;;4956359;28;20433;-80
2021/12/24 01:20:51;;;;;;;;;;;6.50;99.90;;;;;;4955934;28;19969;-80
2021/12/24 01:23:30;;;;;;;;;;;6.60;99.90;;;;;;4955742;28;20020;-80
2021/12/24 01:26:01;;;;;;;;;;;6.50;99.90;;;;;;4971890;28;20393;-80
2021/12/24 01:39:13;;;;;;;;;;;6.70;99.90;;;;;;4971950;28;19933;-79
2021/12/24 01:42:41;;;;;;;;;;;6.70;99.90;;;;;;4956179;28;20325;-79
2021/12/24 01:44:34;;;;;;;;;;;6.80;99.90;;;;;;4954091;28;19922;-79
2021/12/24 01:47:00;;;;;;;;;;;6.70;99.90;;;;;;4972133;28;19922;-79
2021/12/24 01:49:26;;;;;;;;;;;6.80;99.90;;;;;;4972091;28;19976;-80
2021/12/24 01:51:53;;;;;;;;;;;6.80;99.90;;;;;;4972047;28;19926;-80
2021/12/24 01:54:18;;;;;;;;;;;6.80;99.90;;;;;;4955846;28;20009;-79
2021/12/24 01:56:44;;;;;;;;;;;6.80;99.90;;;;;;4972029;28;19981;-79
2021/12/24 01:59:10;;;;;;;;;;;6.80;99.90;;;;;;4971894;28;19981;-79
2021/12/24 02:01:35;;;;;;;;;;;6.80;99.90;;;;;;4971657;28;19922;-80
2021/12/24 02:04:01;;;;;;;;;;;6.80;99.90;;;;;;4955434;28;19933;-79
2021/12/24 02:06:27;;;;;;;;;;;6.90;99.90;;;;;;4971829;28;19922;-80
2021/12/24 02:08:52;;;;;;;;;;;6.90;99.90;;;;;;4971963;28;19977;-81
2021/12/24 02:11:18;;;;;;;;;;;6.90;99.90;;;;;;4955324;28;19924;-79
2021/12/24 02:13:43;;;;;;;;;;;6.90;99.90;;;;;;4971339;28;19967;-80
2021/12/24 02:16:39;;;;;;;;;;;7.00;99.90;;;;;;4955732;28;20302;-80
2021/12/24 02:30:02;;;;;;;;;;;7.10;99.90;;;;;;4971633;28;20402;-79
2021/12/24 02:32:28;;;;;;;;;;;7.10;99.90;;;;;;4971192;28;19922;-79
2021/12/24 02:34:53;;;;;;;;;;;7.10;99.90;;;;;;4955373;28;19929;-79
2021/12/24 02:37:19;;;;;;;;;;;7.10;99.90;;;;;;4956676;28;19973;-79
2021/12/24 02:39:44;;;;;;;;;;;7.20;99.90;;;;;;4940004;29;19944;-80
2021/12/24 02:42:11;;;;;;;;;;;7.20;99.90;;;;;;4969573;28;20417;-79
2021/12/24 02:44:37;;;;;;;;;;;7.20;99.90;;;;;;4975032;28;19929;-80
2021/12/24 02:54:56;;;;;;;;;;;7.50;99.90;;;;;;4974962;28;20065;-80
2021/12/24 02:57:26;;;;;;;;;;;7.40;99.90;;;;;;4974948;28;20020;-80
2021/12/24 02:59:59;;;;;;;;;;;7.50;99.90;;;;;;4974963;28;19926;-80
2021/12/24 03:02:25;;;;;;;;;;;7.50;99.90;;;;;;4974737;28;19922;-79
2021/12/24 03:04:51;;;;;;;;;;;7.60;99.90;;;;;;4958601;28;19929;-80
2021/12/24 03:07:16;;;;;;;;;;;7.60;99.90;;;;;;4974935;28;19922;-79
2021/12/24 03:09:42;;;;;;;;;;;7.70;99.90;;;;;;4975115;28;19995;-79
2021/12/24 03:12:07;;;;;;;;;;;7.80;99.90;;;;;;4973929;28;19996;-79
2021/12/24 03:14:33;;;;;;;;;;;7.80;99.90;;;;;;4958339;28;19926;-80
2021/12/24 03:17:02;;;;;;;;;;;7.80;99.90;;;;;;4958674;28;19922;-79
2021/12/24 03:19:31;;;;;;;;;;;7.80;99.90;;;;;;4974601;28;19969;-79
2021/12/24 03:22:04;;;;;;;;;;;7.80;99.90;;;;;;4958194;28;19984;-79
2021/12/24 03:26:55;;;;;;;;;;;7.80;99.90;;;;;;4974544;28;19922;-79
2021/12/24 03:29:21;;;;;;;;;;;7.90;99.90;;;;;;4958097;28;19926;-79
2021/12/24 03:31:47;;;;;;;;;;;7.90;99.90;;;;;;4974319;28;20356;-80
2021/12/24 03:34:15;;;;;;;;;;;7.90;99.90;;;;;;4974220;28;19949;-80
2021/12/24 03:36:41;;;;;;;;;;;8.00;99.90;;;;;;4974347;28;19922;-80
2021/12/24 03:39:07;;;;;;;;;;;8.00;99.90;;;;;;4957831;28;19926;-80
2021/12/24 03:41:32;;;;;;;;;;;8.00;99.90;;;;;;4974133;28;19922;-79
2021/12/24 03:43:58;;;;;;;;;;;8.10;99.90;;;;;;4957617;28;20013;-79
2021/12/24 03:46:33;;;;;;;;;;;8.10;99.90;;;;;;4974041;28;20371;-79
2021/12/24 03:49:04;;;;;;;;;;;8.10;99.90;;;;;;4957272;28;19922;-80
2021/12/24 03:56:43;;;;;;;;;;;8.10;99.90;;;;;;4973917;28;19968;-79
2021/12/24 03:59:09;;;;;;;;;;;8.10;99.90;;;;;;4957520;28;20021;-80
2021/12/24 04:01:35;;;;;;;;;;;8.00;99.90;;;;;;4973730;28;19922;-80
2021/12/24 04:04:01;;;;;;;;;;;8.10;99.90;;;;;;4973493;28;19922;-79
2021/12/24 04:06:27;;;;;;;;;;;8.00;99.90;;;;;;4958028;28;20290;-79
2021/12/24 04:08:52;;;;;;;;;;;8.00;99.90;;;;;;4973994;28;19922;-79
2021/12/24 04:11:18;;;;;;;;;;;8.00;99.90;;;;;;4956870;28;19922;-80
2021/12/24 04:13:43;;;;;;;;;;;8.00;99.90;;;;;;4957631;28;19922;-80
2021/12/24 04:16:09;;;;;;;;;;;8.00;99.90;;;;;;4957525;28;20056;-80
2021/12/24 04:18:42;;;;;;;;;;;8.00;99.90;;;;;;4957343;28;19926;-80
2021/12/24 04:26:37;;;;;;;;;;;7.90;99.90;;;;;;4970143;28;20013;-80
2021/12/24 04:29:03;;;;;;;;;;;7.90;99.90;;;;;;4970124;28;20009;-79
2021/12/24 04:31:39;;;;;;;;;;;7.90;99.90;;;;;;4988570;28;19922;-79
2021/12/24 04:34:05;;;;;;;;;;;7.90;99.90;;;;;;4957376;28;20060;-80
2021/12/24 04:39:27;;;;;;;;;;;7.90;99.90;;;;;;4973138;28;20469;-79
2021/12/24 04:53:07;;;;;;;;;;;7.90;99.90;;;;;;4972475;28;20397;-81
2021/12/24 05:03:44;;;;;;;;;;;7.90;99.90;;;;;;4972519;28;20294;-80
2021/12/24 05:08:49;;;;;;;;;;;7.90;99.90;;;;;;4972719;28;19929;-81
2021/12/24 05:11:15;;;;;;;;;;;8.00;99.90;;;;;;4973051;28;19970;-79
2021/12/24 05:13:41;;;;;;;;;;;8.00;99.90;;;;;;4956096;28;19952;-80
2021/12/24 05:16:21;;;;;;;;;;;8.00;99.90;;;;;;4972169;28;19922;-79
2021/12/24 05:21:33;;;;;;;;;;;8.00;99.90;;;;;;4972443;28;19941;-79
2021/12/24 05:24:04;;;;;;;;;;;8.00;99.90;;;;;;4972193;28;19922;-80
2021/12/24 05:26:30;;;;;;;;;;;8.00;99.90;;;;;;4972374;28;20290;-80
2021/12/24 05:28:57;;;;;;;;;;;8.00;99.90;;;;;;4956208;28;19922;-80
2021/12/24 05:31:23;;;;;;;;;;;8.00;99.90;;;;;;4972339;28;19922;-79
2021/12/24 05:33:49;;;;;;;;;;;8.00;99.90;;;;;;4972069;28;19926;-79
2021/12/24 05:36:14;;;;;;;;;;;8.00;99.90;;;;;;4955985;28;19977;-80
2021/12/24 05:38:40;;;;;;;;;;;8.00;99.90;;;;;;4955737;28;19930;-80
2021/12/24 05:41:05;;;;;;;;;;;8.00;99.90;;;;;;4956024;28;19942;-80
2021/12/24 05:43:31;;;;;;;;;;;7.90;99.90;;;;;;4955657;28;19926;-80
2021/12/24 05:45:56;;;;;;;;;;;8.00;99.90;;;;;;4955715;28;19922;-79
2021/12/24 05:48:22;;;;;;;;;;;8.00;99.90;;;;;;4956055;28;20445;-79
2021/12/24 05:50:48;;;;;;;;;;;8.00;99.90;;;;;;4955891;28;19922;-80
2021/12/24 05:53:13;;;;;;;;;;;8.00;99.90;;;;;;4955500;28;20083;-80
2021/12/24 05:55:39;;;;;;;;;;;8.00;99.90;;;;;;4972035;28;20367;-80
2021/12/24 05:58:07;;;;;;;;;;;8.00;99.90;;;;;;4955846;28;19934;-80
2021/12/24 06:00:35;;;;;;;;;;;8.00;99.90;;;;;;4971920;28;19968;-79
2021/12/24 06:03:01;;;;;;;;;;;8.00;99.90;;;;;;4971786;28;19922;-80
2021/12/24 06:05:26;;;;;;;;;;;8.00;99.90;;;;;;4955665;28;19945;-80
2021/12/24 06:07:52;;;;;;;;;;;8.00;99.90;;;;;;4972203;28;20027;-80
2021/12/24 06:10:17;;;;;;;;;;;8.00;99.90;;;;;;4955683;28;20399;-79
2021/12/24 06:12:43;;;;;;;;;;;8.00;99.90;;;;;;4957133;28;20411;-81
2021/12/24 06:15:09;;;;;;;;;;;8.00;99.90;;;;;;4959506;28;20017;-80
2021/12/24 06:17:37;;;;;;;;;;;7.90;99.90;;;;;;4959584;28;19934;-80
2021/12/24 06:20:03;;;;;;;;;;;7.90;99.90;;;;;;4975732;28;19923;-80
2021/12/24 06:22:29;;;;;;;;;;;7.90;99.90;;;;;;4958880;28;19923;-80
2021/12/24 06:24:54;;;;;;;;;;;7.90;99.90;;;;;;4975173;28;20367;-80
2021/12/24 06:27:20;;;;;;;;;;;7.90;99.90;;;;;;4976099;28;19925;-79
2021/12/24 06:29:45;;;;;;;;;;;7.80;99.90;;;;;;4959730;28;20390;-80
2021/12/24 06:32:11;;;;;;;;;;;7.90;99.90;;;;;;4959144;28;20041;-79
2021/12/24 06:34:36;;;;;;;;;;;7.90;99.90;;;;;;4975264;28;19922;-79
2021/12/24 06:37:02;;;;;;;;;;;7.90;99.90;;;;;;4974975;28;20021;-80
2021/12/24 06:39:28;;;;;;;;;;;7.80;99.90;;;;;;4974899;28;19965;-80
2021/12/24 06:41:54;;;;;;;;;;;7.80;99.90;;;;;;4974890;28;19939;-80
2021/12/24 06:44:21;;;;;;;;;;;7.80;99.90;;;;;;4974777;28;19922;-79
2021/12/24 06:46:46;;;;;;;;;;;7.80;99.90;;;;;;4975244;28;19922;-79
2021/12/24 06:49:12;;;;;;;;;;;7.80;99.90;;;;;;4975016;28;19980;-80
2021/12/24 06:51:37;;;;;;;;;;;7.80;99.90;;;;;;4975116;28;19922;-79
2021/12/24 06:54:03;;;;;;;;;;;7.80;99.90;;;;;;4974696;28;19953;-79
2021/12/24 06:56:29;;;;;;;;;;;7.80;99.90;;;;;;4958973;28;19926;-79
2021/12/24 06:58:54;;;;;;;;;;;7.80;99.90;;;;;;4957464;28;20335;-80
2021/12/24 07:01:20;;;;;;;;;;;7.80;99.90;;;;;;4958987;28;20414;-82
2021/12/24 07:03:46;;;;;;;;;;;7.80;99.90;;;;;;4958416;28;19922;-78
2021/12/24 07:06:11;;;;;;;;;;;7.80;99.90;;;;;;4975304;28;19933;-77
2021/12/24 07:08:37;;;;;;;;;;;7.80;99.90;;;;;;4975754;28;20409;-80
2021/12/24 07:11:03;;;;;;;;;;;7.80;99.90;;;;;;4974454;28;19926;-81
2021/12/24 07:13:28;;;;;;;;;;;7.70;99.90;;;;;;4958450;28;19922;-82
2021/12/24 07:15:54;;;;;;;;;;;7.70;99.90;;;;;;4958817;28;19923;-79
2021/12/24 07:18:20;;;;;;;;;;;7.80;99.90;;;;;;4974621;28;20018;-79
2021/12/24 07:20:45;;;;;;;;;;;7.70;99.90;;;;;;4974563;28;19961;-79
2021/12/24 07:23:10;;;;;;;;;;;7.70;99.90;;;;;;4973152;28;20379;-77
2021/12/24 07:25:36;;;;;;;;;;;7.70;99.90;;;;;;4957814;28;19926;-79
2021/12/24 07:28:02;;;;;;;;;;;7.70;99.90;;;;;;4973992;28;20016;-77
2021/12/24 07:30:27;;;;;;;;;;;7.70;99.90;;;;;;4974128;28;19922;-79
2021/12/24 07:32:53;;;;;;;;;;;7.70;99.90;;;;;;4957807;28;20009;-80
2021/12/24 07:35:18;;;;;;;;;;;7.70;99.90;;;;;;4973867;28;19958;-77
2021/12/24 07:37:44;;;;;;;;;;;7.70;99.90;;;;;;4974502;28;19981;-76
2021/12/24 07:40:10;;;;;;;;;;;7.60;99.90;;;;;;4974228;28;19922;-77
2021/12/24 07:42:37;;;;;;;;;;;7.60;99.90;;;;;;4958150;28;19929;-77
2021/12/24 07:45:03;;;;;;;;;;;7.60;99.90;;;;;;4958180;28;19926;-77
2021/12/24 07:47:33;;;;;;;;;;;7.60;99.90;;;;;;4973207;28;19973;-77
2021/12/24 07:50:02;;;;;;;;;;;7.60;99.90;;;;;;4957223;28;20402;-77
2021/12/24 07:52:28;;;;;;;;;;;7.60;99.90;;;;;;4955974;28;19929;-78
2021/12/24 07:54:56;;;;;;;;;;;7.60;99.90;;;;;;4948592;28;20375;-77
2021/12/24 07:57:22;;;;;;;;;;;7.60;99.90;;;;;;4973068;28;20025;-80
2021/12/24 07:59:48;;;;;;;;;;;7.60;99.90;;;;;;4990121;28;19922;-79
2021/12/24 08:02:15;;;;;;;;;;;7.60;99.90;;;;;;4957983;28;20282;-78
2021/12/24 08:04:41;;;;;;;;;;;7.60;99.90;;;;;;4973456;28;19973;-80
2021/12/24 08:07:07;;;;;;;;;;;7.70;99.90;;;;;;4957972;28;19922;-82
2021/12/24 08:09:33;;;;;;;;;;;7.60;99.90;;;;;;4957877;28;19922;-81
2021/12/24 08:11:58;;;;;;;;;;;7.60;99.90;;;;;;4957818;28;19949;-83
2021/12/24 08:14:24;;;;;;;;;;;7.60;99.90;;;;;;4958196;28;19922;-84
2021/12/24 08:16:49;;;;;;;;;;;7.60;99.90;;;;;;4974087;28;20394;-83
2021/12/24 08:19:17;;;;;;;;;;;7.60;99.90;;;;;;4958105;28;19949;-82
2021/12/24 08:21:43;;;;;;;;;;;7.60;99.90;;;;;;4974488;28;20275;-85
2021/12/24 08:24:08;;;;;;;;;;;7.50;99.90;;;;;;4957800;28;20412;-83
2021/12/24 08:26:34;;;;;;;;;;;7.50;99.90;;;;;;4957786;28;19922;-81
2021/12/24 08:28:59;;;;;;;;;;;7.60;99.90;;;;;;4958537;28;20398;-81
2021/12/24 08:31:25;;;;;;;;;;;7.60;99.90;;;;;;4974115;28;20015;-82
2021/12/24 08:33:50;;;;;;;;;;;7.50;99.90;;;;;;4957744;28;20341;-82
2021/12/24 08:36:16;;;;;;;;;;;7.50;99.90;;;;;;4957439;28;19926;-82
2021/12/24 08:38:41;;;;;;;;;;;7.50;99.90;;;;;;4957445;28;19930;-82
2021/12/24 08:41:07;;;;;;;;;;;7.50;99.90;;;;;;4973511;28;19972;-83
2021/12/24 08:43:33;;;;;;;;;;;7.50;99.90;;;;;;4973676;28;19976;-83
2021/12/24 08:45:59;;;;;;;;;;;7.50;99.90;;;;;;4957453;28;19926;-82
2021/12/24 08:48:25;;;;;;;;;;;7.50;99.90;;;;;;4973507;28;20279;-81
2021/12/24 08:50:51;;;;;;;;;;;7.50;99.90;;;;;;4973259;28;19965;-82
2021/12/24 08:53:18;;;;;;;;;;;7.50;99.90;;;;;;4956934;28;21320;-82
2021/12/24 08:55:43;;;;;;;;;;;7.50;99.90;;;;;;4973359;28;19929;-82
2021/12/24 08:58:09;;;;;;;;;;;7.50;99.90;;;;;;4973620;28;19932;-81
2021/12/24 09:00:35;;;;;;;;;;;7.50;99.90;;;;;;4956917;28;20346;-81
2021/12/24 09:03:02;;;;;;;;;;;7.50;99.90;;;;;;4956273;28;19928;-81
2021/12/24 09:05:28;;;;;;;;;;;7.60;99.90;;;;;;4972423;28;19922;-80
2021/12/24 09:07:53;;;;;;;;;;;7.50;99.90;;;;;;4971533;28;19922;-81
2021/12/24 09:10:19;;;;;;;;;;;7.40;99.90;;;;;;4956097;28;20339;-79
2021/12/24 09:12:44;;;;;;;;;;;7.50;99.90;;;;;;4972244;28;19930;-81
2021/12/24 09:15:11;;;;;;;;;;;7.50;99.90;;;;;;4973147;28;20411;-80
2021/12/24 09:17:36;;;;;;;;;;;7.50;99.90;;;;;;4957036;28;19926;-80
2021/12/24 09:20:03;;;;;;;;;;;7.50;99.90;;;;;;4956482;28;19937;-81
2021/12/24 09:22:32;;;;;;;;;;;7.50;99.90;;;;;;4956601;28;20382;-79
2021/12/24 09:24:57;;;;;;;;;;;7.50;99.90;;;;;;4956460;28;19922;-82
2021/12/24 09:27:23;;;;;;;;;;;7.60;99.90;;;;;;4972639;28;19922;-82
2021/12/24 09:29:49;;;;;;;;;;;7.60;99.90;;;;;;4956376;28;19985;-79
2021/12/24 09:32:15;;;;;;;;;;;7.60;99.90;;;;;;4970871;28;19926;-79
2021/12/24 09:34:41;;;;;;;;;;;7.60;99.90;;;;;;4983080;28;20009;-80
2021/12/24 09:37:06;;;;;;;;;;;7.60;99.90;;;;;;4990881;28;19988;-82
2021/12/24 09:39:32;;;;;;;;;;;7.60;99.90;;;;;;4972042;28;19937;-79
2021/12/24 09:41:58;;;;;;;;;;;7.70;99.90;;;;;;4956235;28;19969;-80
2021/12/24 09:44:24;;;;;;;;;;;7.70;99.90;;;;;;4972596;28;19922;-80
2021/12/24 09:46:50;;;;;;;;;;;7.70;99.90;;;;;;4971674;28;20013;-80
2021/12/24 09:49:16;;;;;;;;;;;7.70;99.90;;;;;;4955877;28;19922;-80
2021/12/24 09:51:43;;;;;;;;;;;7.70;99.90;;;;;;4956083;28;19926;-79
2021/12/24 09:54:10;;;;;;;;;;;7.80;99.90;;;;;;4973795;28;19925;-79
2021/12/24 09:56:35;;;;;;;;;;;7.80;99.90;;;;;;4971651;28;19929;-85
2021/12/24 09:59:01;;;;;;;;;;;7.80;99.90;;;;;;4956211;28;19926;-79
2021/12/24 10:01:30;;;;;;;;;;;7.80;99.90;;;;;;4955787;28;20083;-78
2021/12/24 10:04:02;;;;;;;;;;;7.90;99.90;;;;;;4971316;28;20001;-79
2021/12/24 10:06:27;;;;;;;;;;;7.90;99.90;;;;;;4956372;28;20088;-84
2021/12/24 10:09:04;;;;;;;;;;;7.90;99.90;;;;;;4956025;28;20017;-83
2021/12/24 10:11:45;;;;;;;;;;;7.90;99.90;;;;;;4955623;28;20370;-81
2021/12/24 10:14:11;;;;;;;;;;;7.90;99.90;;;;;;4955698;28;19922;-81
2021/12/24 10:16:40;;;;;;;;;;;7.90;99.90;;;;;;4956089;28;20379;-84
2021/12/24 10:19:06;;;;;;;;;;;7.90;99.90;;;;;;4956057;28;19949;-84
2021/12/24 10:21:32;;;;;;;;;;;7.90;99.90;;;;;;4955930;28;20440;-80
2021/12/24 10:24:00;;;;;;;;;;;7.90;99.90;;;;;;4955417;28;19961;-79
2021/12/24 10:26:25;;;;;;;;;;;8.00;99.90;;;;;;4955756;28;19922;-79
2021/12/24 10:29:04;;;;;;;;;;;8.00;99.90;;;;;;4971943;28;19922;-79
2021/12/24 10:31:30;;;;;;;;;;;8.10;99.90;;;;;;4956170;28;20291;-80
2021/12/24 10:34:06;;;;;;;;;;;8.10;99.90;;;;;;4955417;28;19922;-79
2021/12/24 10:36:31;;;;;;;;;;;8.20;99.90;;;;;;4955699;28;20339;-79
2021/12/24 10:38:57;;;;;;;;;;;8.40;99.90;;;;;;4955546;28;19926;-79
2021/12/24 10:41:24;;;;;;;;;;;8.40;99.90;;;;;;4955591;28;20370;-80
2021/12/24 10:43:51;;;;;;;;;;;8.50;99.90;;;;;;4955553;28;20008;-79
2021/12/24 10:46:22;;;;;;;;;;;8.60;99.90;;;;;;4965280;28;20382;-80
2021/12/24 10:49:13;;;;;;;;;;;8.60;99.90;;;;;;4967108;28;19922;-79
2021/12/24 10:51:54;;;;;;;;;;;8.60;99.90;;;;;;4971799;28;20400;-80
2021/12/24 10:54:20;;;;;;;;;;;8.60;99.90;;;;;;4971771;28;19929;-79
2021/12/24 10:56:45;;;;;;;;;;;8.60;99.90;;;;;;4939387;29;19922;-79
2021/12/24 10:59:12;;;;;;;;;;;8.50;99.90;;;;;;4938826;29;20141;-79
2021/12/24 11:01:38;;;;;;;;;;;8.50;99.90;;;;;;4966485;28;19928;-79
2021/12/24 11:04:03;;;;;;;;;;;8.40;99.90;;;;;;4972978;28;20288;-79
2021/12/24 11:06:30;;;;;;;;;;;8.40;99.90;;;;;;4974955;28;19929;-79
2021/12/24 11:08:55;;;;;;;;;;;8.30;99.90;;;;;;4958804;28;19969;-81
2021/12/24 11:11:21;;;;;;;;;;;8.30;99.90;;;;;;4959149;28;19973;-80
2021/12/24 11:13:47;;;;;;;;;;;8.30;99.90;;;;;;4952860;28;20317;-79
2021/12/24 11:16:20;;;;;;;;;;;8.30;99.90;;;;;;4958805;28;19929;-80
2021/12/24 11:18:53;;;;;;;;;;;8.30;99.90;;;;;;4975027;28;20287;-80
2021/12/24 11:21:24;;;;;;;;;;;8.30;99.90;;;;;;4965614;28;19982;-82
2021/12/24 11:23:50;;;;;;;;;;;8.30;99.90;;;;;;4955535;28;19922;-79
2021/12/24 11:26:17;;;;;;;;;;;8.30;99.90;;;;;;4939527;29;19952;-82
2021/12/24 11:28:43;;;;;;;;;;;8.30;99.90;;;;;;4939551;29;19945;-81
2021/12/24 11:31:10;;;;;;;;;;;8.30;99.90;;;;;;4962122;28;20379;-81
2021/12/24 11:33:36;;;;;;;;;;;8.30;99.90;;;;;;4958372;28;19926;-80
2021/12/24 11:36:06;;;;;;;;;;;8.20;99.90;;;;;;4958607;28;20009;-80
2021/12/24 11:38:33;;;;;;;;;;;8.30;99.90;;;;;;4959369;28;19937;-79
2021/12/24 11:41:00;;;;;;;;;;;8.30;99.90;;;;;;4963547;28;20374;-80
2021/12/24 11:43:27;;;;;;;;;;;8.20;99.90;;;;;;4964604;28;19929;-79
2021/12/24 11:45:52;;;;;;;;;;;8.20;99.90;;;;;;4958054;28;19972;-80
2021/12/24 11:48:18;;;;;;;;;;;8.20;99.90;;;;;;4957861;28;19961;-80
2021/12/24 11:50:43;;;;;;;;;;;8.20;99.90;;;;;;4958504;28;19922;-81
2021/12/24 11:53:10;;;;;;;;;;;8.20;99.90;;;;;;4958051;28;19933;-80
2021/12/24 11:55:38;;;;;;;;;;;8.10;99.90;;;;;;4957994;28;19929;-80
2021/12/24 11:58:05;;;;;;;;;;;8.10;99.90;;;;;;4957881;28;19926;-81
2021/12/24 12:00:37;;;;;;;;;;;8.00;99.90;;;;;;4973096;28;20009;-81
2021/12/24 12:03:02;;;;;;;;;;;8.00;99.90;;;;;;4957591;28;20434;-80
2021/12/24 12:05:32;;;;;;;;;;;7.90;99.90;;;;;;4957612;28;20009;-80
2021/12/24 12:08:16;;;;;;;;;;;7.80;99.90;;;;;;4956512;28;20288;-80
2021/12/24 12:10:53;;;;;;;;;;;7.70;99.90;;;;;;4972903;28;20119;-80
2021/12/24 12:13:34;;;;;;;;;;;7.50;99.90;;;;;;4973932;28;20025;-80
2021/12/24 12:16:00;;;;;;;;;;;7.40;99.90;;;;;;4973600;28;19922;-80
2021/12/24 12:18:29;;;;;;;;;;;7.20;99.90;;;;;;4958401;28;19926;-79
2021/12/24 12:21:07;;;;;;;;;;;7.10;99.90;;;;;;4974413;28;19922;-78
2021/12/24 12:23:52;;;;;;;;;;;7.10;99.90;;;;;;4973384;28;19922;-80
2021/12/24 12:26:38;;;;;;;;;;;7.00;99.90;;;;;;4957134;28;19922;-78
2021/12/24 12:29:20;;;;;;;;;;;7.00;99.90;;;;;;4972829;28;19922;-78
2021/12/24 12:31:46;;;;;;;;;;;6.90;99.90;;;;;;4973554;28;19926;-78
2021/12/24 12:34:31;;;;;;;;;;;7.00;99.90;;;;;;4973340;28;19936;-79
2021/12/24 12:37:10;;;;;;;;;;;6.90;99.90;;;;;;4954502;28;19945;-78
2021/12/24 12:39:36;;;;;;;;;;;6.90;99.90;;;;;;4967182;28;19926;-81
2021/12/24 12:42:02;;;;;;;;;;;6.90;99.90;;;;;;4972951;28;19933;-79
2021/12/24 12:44:28;;;;;;;;;;;6.90;99.90;;;;;;4956820;28;19970;-79
2021/12/24 12:47:07;;;;;;;;;;;6.90;99.90;;;;;;4956783;28;19930;-79
2021/12/24 12:49:34;;;;;;;;;;;6.90;99.90;;;;;;4973272;28;19929;-79
2021/12/24 12:52:04;;;;;;;;;;;6.90;99.90;;;;;;4974531;28;20028;-79
2021/12/24 12:54:32;;;;;;;;;;;6.90;99.90;;;;;;4957423;28;19922;-77
2021/12/24 12:57:16;;;;;;;;;;;6.90;99.90;;;;;;4972176;28;19922;-80
2021/12/24 13:00:01;;;;;;;;;;;6.90;99.90;;;;;;4957434;28;19930;-80
2021/12/24 13:02:45;;;;;;;;;;;6.90;99.90;;;;;;4957326;28;19922;-80
2021/12/24 13:05:12;;;;;;;;;;;6.90;99.90;;;;;;4953998;28;19929;-79
2021/12/24 13:07:37;;;;;;;;;;;6.90;99.90;;;;;;4970020;28;20061;-79
2021/12/24 13:10:04;;;;;;;;;;;6.90;99.90;;;;;;4956671;28;19980;-79
2021/12/24 13:12:29;;;;;;;;;;;6.90;99.90;;;;;;4972614;28;19941;-79
2021/12/24 13:14:58;;;;;;;;;;;7.00;99.90;;;;;;4950621;28;20307;-79
2021/12/24 13:17:30;;;;;;;;;;;7.00;99.90;;;;;;4956112;28;19929;-77
2021/12/24 13:20:09;;;;;;;;;;;7.00;99.90;;;;;;4956514;28;19922;-77
2021/12/24 13:22:37;;;;;;;;;;;7.00;99.90;;;;;;4954800;28;19969;-82
2021/12/24 13:25:10;;;;;;;;;;;6.90;99.90;;;;;;4956055;28;20127;-79
2021/12/24 13:27:50;;;;;;;;;;;6.90;99.90;;;;;;4955860;28;20697;-78
2021/12/24 13:30:16;;;;;;;;;;;6.90;99.90;;;;;;4946816;28;19922;-81
2021/12/24 13:32:43;;;;;;;;;;;6.90;99.90;;;;;;4972068;28;20379;-81
2021/12/24 13:35:10;;;;;;;;;;;6.90;99.90;;;;;;4956423;28;19922;-81
2021/12/24 13:37:35;;;;;;;;;;;6.90;99.90;;;;;;4972734;28;20287;-81
2021/12/24 13:40:01;;;;;;;;;;;6.90;99.90;;;;;;4956042;28;19922;-81
2021/12/24 13:42:27;;;;;;;;;;;6.90;99.90;;;;;;4956081;28;19945;-81
2021/12/24 13:45:00;;;;;;;;;;;6.90;99.90;;;;;;4956235;28;20386;-81
2021/12/24 13:47:44;;;;;;;;;;;6.80;99.90;;;;;;4956367;28;19932;-82
2021/12/24 13:55:25;;;;;;;;;;;6.80;99.90;;;;;;4972269;28;19929;-81
2021/12/24 13:58:01;;;;;;;;;;;6.80;99.90;;;;;;4956088;28;19927;-81
2021/12/24 14:00:29;;;;;;;;;;;6.80;99.90;;;;;;4956352;28;20415;-81
2021/12/24 14:02:56;;;;;;;;;;;6.70;99.90;;;;;;4955992;28;19922;-81
2021/12/24 14:05:22;;;;;;;;;;;6.70;99.90;;;;;;4955719;28;19932;-81
2021/12/24 14:08:06;;;;;;;;;;;6.70;99.90;;;;;;4972614;28;19922;-81
2021/12/24 14:10:32;;;;;;;;;;;6.70;99.90;;;;;;4964413;28;19984;-82
2021/12/24 14:13:05;;;;;;;;;;;6.60;99.90;;;;;;4956439;28;19922;-81
2021/12/24 14:15:31;;;;;;;;;;;6.60;99.90;;;;;;4952024;28;20041;-80
2021/12/24 14:18:21;;;;;;;;;;;6.60;99.90;;;;;;4952635;28;19933;-80
2021/12/24 14:23:46;;;;;;;;;;;6.50;99.90;;;;;;4939390;28;20386;-81
2021/12/24 14:26:12;;;;;;;;;;;6.60;99.90;;;;;;4955970;28;19927;-81
2021/12/24 14:28:48;;;;;;;;;;;6.60;99.90;;;;;;4955856;28;19957;-80
2021/12/24 14:31:14;;;;;;;;;;;6.60;99.90;;;;;;4972124;28;19922;-80
2021/12/24 14:33:45;;;;;;;;;;;6.60;99.90;;;;;;4957589;28;19945;-80
2021/12/24 14:36:18;;;;;;;;;;;6.60;99.90;;;;;;4975423;28;19922;-80
2021/12/24 14:38:43;;;;;;;;;;;6.60;99.90;;;;;;4975632;28;19953;-80
2021/12/24 14:41:14;;;;;;;;;;;6.50;99.90;;;;;;4975983;28;19922;-80
2021/12/24 14:43:40;;;;;;;;;;;6.50;99.90;;;;;;4975219;28;19929;-80
2021/12/24 14:46:07;;;;;;;;;;;6.40;99.90;;;;;;4959991;28;19972;-80
2021/12/24 14:48:32;;;;;;;;;;;6.30;99.90;;;;;;4959695;28;20017;-80
2021/12/24 14:51:02;;;;;;;;;;;6.40;99.90;;;;;;4975144;28;20047;-81
2021/12/24 14:53:31;;;;;;;;;;;6.30;99.90;;;;;;4975318;28;19929;-80
2021/12/24 14:55:58;;;;;;;;;;;6.20;99.90;;;;;;4959686;28;20402;-80
2021/12/24 14:58:28;;;;;;;;;;;6.20;99.90;;;;;;4959228;28;19933;-81
2021/12/24 15:00:54;;;;;;;;;;;6.10;99.90;;;;;;4975115;28;19922;-80
2021/12/24 15:03:21;;;;;;;;;;;6.10;99.90;;;;;;4958831;28;19929;-81
2021/12/24 15:05:47;;;;;;;;;;;6.00;99.90;;;;;;4958629;28;19922;-80
2021/12/24 15:08:15;;;;;;;;;;;6.00;99.90;;;;;;4959214;28;19929;-80
2021/12/24 15:10:54;;;;;;;;;;;6.00;99.90;;;;;;4959213;28;20290;-81
2021/12/24 15:13:20;;;;;;;;;;;5.90;99.90;;;;;;4975201;28;19977;-81
2021/12/24 15:15:50;;;;;;;;;;;5.90;99.90;;;;;;4975223;28;19922;-81
2021/12/24 15:18:15;;;;;;;;;;;5.90;99.90;;;;;;4958061;28;19977;-83
2021/12/24 15:20:40;;;;;;;;;;;5.90;99.90;;;;;;4957728;28;19972;-79
2021/12/24 15:23:06;;;;;;;;;;;5.90;99.90;;;;;;4974275;28;20330;-80
2021/12/24 15:25:32;;;;;;;;;;;5.80;99.90;;;;;;4958419;28;19938;-80
2021/12/24 15:28:01;;;;;;;;;;;5.90;99.90;;;;;;4975409;28;20414;-80
2021/12/24 15:30:27;;;;;;;;;;;5.80;99.90;;;;;;4958531;28;19922;-81
2021/12/24 15:32:52;;;;;;;;;;;5.80;99.90;;;;;;4974763;28;19932;-80
2021/12/24 15:35:17;;;;;;;;;;;5.70;99.90;;;;;;4960906;28;19922;-79
2021/12/24 15:37:43;;;;;;;;;;;5.70;99.90;;;;;;4974734;28;20025;-80
2021/12/24 15:40:09;;;;;;;;;;;5.70;99.90;;;;;;4974362;28;19930;-81
2021/12/24 15:42:34;;;;;;;;;;;5.60;99.90;;;;;;4958188;28;19944;-81
2021/12/24 15:45:01;;;;;;;;;;;5.60;99.90;;;;;;4957400;28;20069;-80
2021/12/24 15:47:27;;;;;;;;;;;5.60;99.90;;;;;;4974262;28;20073;-77
2021/12/24 15:49:52;;;;;;;;;;;5.60;99.90;;;;;;4975420;28;20386;-81
2021/12/24 15:52:18;;;;;;;;;;;5.50;99.90;;;;;;4973009;28;19929;-79
2021/12/24 15:54:43;;;;;;;;;;;5.50;99.90;;;;;;4958306;28;19929;-80
2021/12/24 15:57:09;;;;;;;;;;;5.50;99.90;;;;;;4974291;28;20389;-80
2021/12/24 15:59:36;;;;;;;;;;;5.50;99.90;;;;;;4947381;28;19933;-81
2021/12/24 16:02:03;;;;;;;;;;;5.50;99.90;;;;;;4973607;28;19969;-81
2021/12/24 16:04:28;;;;;;;;;;;5.40;99.90;;;;;;4957639;28;19952;-83
2021/12/24 16:06:53;;;;;;;;;;;5.40;99.90;;;;;;4963688;28;19945;-82
2021/12/24 16:09:23;;;;;;;;;;;5.40;99.90;;;;;;4978007;28;19926;-82
2021/12/24 16:11:49;;;;;;;;;;;5.30;99.90;;;;;;4978522;28;19949;-81